Bonaria — ICUS — position and weather

sailwx.info

Track history (hours):
 
Tides and Currents Weather Stations Pressure Air Temp Water Temp Dewpoint Dewpoint Depression Visibility Wind Speed Wind Dir Waves Ship Positions

Bonaria

Last reported at 2015-Mar-21 17:33 UTC. Time now 2015-Mar-28 01:51 UTC.
Position N 39°08' E 009°11'.

Length 205 m; draft 6.8 m.

Type: Passenger vessel. MMSI: 247322400.

Date/timePositionNaut miles runAvg speedWind from/ knotsBaromVisibWave heightAir tempDewpointWater temp
2015-Mar-21 17:33N 39°08' E 009°11'5 5.5
2015-Mar-21 16:33N 39°13' E 009°06'0 0.0
2015-Mar-21 15:33N 39°13' E 009°06'0 0.0
2015-Mar-21 14:30N 39°13' E 009°06'0 0.0
2015-Mar-21 13:33N 39°13' E 009°06'0 0.0
2015-Mar-21 12:32N 39°13' E 009°06'0 0.0
2015-Mar-21 11:32N 39°13' E 009°06'0 0.0
2015-Mar-21 10:31N 39°13' E 009°06'0 0.0
2015-Mar-21 09:32N 39°13' E 009°06'6 5.9
2015-Mar-21 08:32N 39°08' E 009°11'108 3.1
2015-Mar-19 21:33N 40°55' E 009°31'0 0.0
2015-Mar-19 20:33N 40°55' E 009°31'0 0.0
2015-Mar-19 19:33N 40°55' E 009°31'0 0.0
2015-Mar-19 18:33N 40°55' E 009°31'0 0.0
2015-Mar-19 17:32N 40°55' E 009°31'0 0.0
2015-Mar-19 16:33N 40°55' E 009°31'0 0.0
2015-Mar-19 15:33N 40°55' E 009°31'0 0.0
2015-Mar-19 14:33N 40°55' E 009°31'0 0.0
2015-Mar-19 13:34N 40°55' E 009°31'0 0.0
2015-Mar-19 12:33N 40°55' E 009°31'0 0.0
2015-Mar-19 11:34N 40°55' E 009°31'0 0.0
2015-Mar-19 10:33N 40°55' E 009°31'0 0.0
2015-Mar-19 09:32N 40°55' E 009°31'0 0.0
2015-Mar-19 08:33N 40°55' E 009°31'0 0.0
2015-Mar-19 07:31N 40°55' E 009°31'0 0.0
2015-Mar-19 06:33N 40°55' E 009°31'0 0.1
2015-Mar-19 05:33N 40°55' E 009°32'0 0.0
2015-Mar-17 21:33N 40°55' E 009°32'0 0.0
2015-Mar-17 20:32N 40°55' E 009°32'0 0.0
2015-Mar-17 19:33N 40°55' E 009°31'0 0.0
2015-Mar-17 18:33N 40°55' E 009°32'0 0.0
2015-Mar-17 17:33N 40°55' E 009°31'0 0.0
2015-Mar-17 16:33N 40°55' E 009°32'0 0.0
2015-Mar-17 15:33N 40°55' E 009°31'0 0.0
2015-Mar-17 14:33N 40°55' E 009°32'0 0.0
2015-Mar-17 13:33N 40°55' E 009°31'0 0.0
2015-Mar-17 12:33N 40°55' E 009°31'0 0.0
2015-Mar-17 11:33N 40°55' E 009°32'0 0.0
2015-Mar-17 10:33N 40°55' E 009°32'0 0.0
2015-Mar-17 09:33N 40°55' E 009°32'0 0.0
2015-Mar-17 08:34N 40°55' E 009°32'0 0.0
2015-Mar-17 07:32N 40°55' E 009°32'0 0.0
2015-Mar-17 06:33N 40°55' E 009°32'0 0.2
2015-Mar-17 05:33N 40°55' E 009°32'0 0.0
2015-Mar-15 21:33N 40°55' E 009°32'0 0.0
2015-Mar-15 20:32N 40°55' E 009°32'0 0.0
2015-Mar-15 19:33N 40°55' E 009°31'0 0.0
2015-Mar-15 18:33N 40°55' E 009°32'0 0.0
2015-Mar-15 17:33N 40°55' E 009°32'0 0.0
2015-Mar-15 16:33N 40°55' E 009°32'0 0.0
2015-Mar-15 15:33N 40°55' E 009°31'0 0.0
2015-Mar-15 14:33N 40°55' E 009°32'0 0.0
2015-Mar-15 13:33N 40°55' E 009°32'0 0.0
2015-Mar-15 12:34N 40°55' E 009°31'0 0.0
2015-Mar-15 11:33N 40°55' E 009°32'0 0.0
2015-Mar-15 10:33N 40°55' E 009°31'0 0.0
2015-Mar-15 09:33N 40°55' E 009°32'0 0.0
2015-Mar-15 08:33N 40°55' E 009°32'0 0.0
2015-Mar-15 07:33N 40°55' E 009°31'0 0.0
2015-Mar-15 06:33N 40°55' E 009°31'0 0.0
2015-Mar-15 05:33N 40°55' E 009°31'0 0.0
2015-Mar-13 21:33N 40°55' E 009°32'0 0.0
2015-Mar-13 20:33N 40°55' E 009°32'0 0.0
2015-Mar-13 19:32N 40°55' E 009°31'0 0.0
2015-Mar-13 18:32N 40°55' E 009°32'0 0.0
2015-Mar-13 17:33N 40°55' E 009°32'0 0.0
2015-Mar-13 16:33N 40°55' E 009°32'0 0.0
2015-Mar-13 15:33N 40°55' E 009°31'0 0.0
2015-Mar-13 14:33N 40°55' E 009°31'0 0.0
2015-Mar-13 13:33N 40°55' E 009°31'0 0.0
2015-Mar-13 12:33N 40°55' E 009°32'0 0.0
2015-Mar-13 11:33N 40°55' E 009°31'0 0.0
2015-Mar-13 10:31N 40°55' E 009°32'0 0.0
2015-Mar-13 09:33N 40°55' E 009°32'0 0.0
2015-Mar-13 08:33N 40°55' E 009°31'0 0.0
2015-Mar-13 07:33N 40°55' E 009°31'0 0.0
2015-Mar-13 06:33N 40°55' E 009°31'0 0.0
2015-Mar-13 05:33N 40°55' E 009°31'0 0.0
2015-Mar-11 21:33N 40°55' E 009°32'0 0.1
2015-Mar-11 20:21N 40°55' E 009°32'0 0.0
2015-Mar-11 19:33N 40°55' E 009°32'0 0.0
2015-Mar-11 18:24N 40°55' E 009°32'  
Track history (hours):
 
Tides and Currents Weather Stations Pressure Air Temp Water Temp Dewpoint Dewpoint Depression Visibility Wind Speed Wind Dir Waves Ship Positions

Bonaria

Last reported at 2015-Mar-21 17:33 UTC. Time now 2015-Mar-28 01:51 UTC.
Position N 39°08' E 009°11'.

Length 205 m; draft 6.8 m.

Type: Passenger vessel. MMSI: 247322400.

Date/timePositionNaut miles runAvg speedWind from/ knotsBaromVisibWave heightAir tempDewpointWater temp
2015-Mar-21 17:33N 39°08' E 009°11'5 5.5
2015-Mar-21 16:33N 39°13' E 009°06'0 0.0
2015-Mar-21 15:33N 39°13' E 009°06'0 0.0
2015-Mar-21 14:30N 39°13' E 009°06'0 0.0
2015-Mar-21 13:33N 39°13' E 009°06'0 0.0
2015-Mar-21 12:32N 39°13' E 009°06'0 0.0
2015-Mar-21 11:32N 39°13' E 009°06'0 0.0
2015-Mar-21 10:31N 39°13' E 009°06'0 0.0
2015-Mar-21 09:32N 39°13' E 009°06'6 5.9
2015-Mar-21 08:32N 39°08' E 009°11'108 3.1
2015-Mar-19 21:33N 40°55' E 009°31'0 0.0
2015-Mar-19 20:33N 40°55' E 009°31'0 0.0
2015-Mar-19 19:33N 40°55' E 009°31'0 0.0
2015-Mar-19 18:33N 40°55' E 009°31'0 0.0
2015-Mar-19 17:32N 40°55' E 009°31'0 0.0
2015-Mar-19 16:33N 40°55' E 009°31'0 0.0
2015-Mar-19 15:33N 40°55' E 009°31'0 0.0
2015-Mar-19 14:33N 40°55' E 009°31'0 0.0
2015-Mar-19 13:34N 40°55' E 009°31'0 0.0
2015-Mar-19 12:33N 40°55' E 009°31'0 0.0
2015-Mar-19 11:34N 40°55' E 009°31'0 0.0
2015-Mar-19 10:33N 40°55' E 009°31'0 0.0
2015-Mar-19 09:32N 40°55' E 009°31'0 0.0
2015-Mar-19 08:33N 40°55' E 009°31'0 0.0
2015-Mar-19 07:31N 40°55' E 009°31'0 0.0
2015-Mar-19 06:33N 40°55' E 009°31'0 0.1
2015-Mar-19 05:33N 40°55' E 009°32'0 0.0
2015-Mar-17 21:33N 40°55' E 009°32'0 0.0
2015-Mar-17 20:32N 40°55' E 009°32'0 0.0
2015-Mar-17 19:33N 40°55' E 009°31'0 0.0
2015-Mar-17 18:33N 40°55' E 009°32'0 0.0
2015-Mar-17 17:33N 40°55' E 009°31'0 0.0
2015-Mar-17 16:33N 40°55' E 009°32'0 0.0
2015-Mar-17 15:33N 40°55' E 009°31'0 0.0
2015-Mar-17 14:33N 40°55' E 009°32'0 0.0
2015-Mar-17 13:33N 40°55' E 009°31'0 0.0
2015-Mar-17 12:33N 40°55' E 009°31'0 0.0
2015-Mar-17 11:33N 40°55' E 009°32'0 0.0
2015-Mar-17 10:33N 40°55' E 009°32'0 0.0
2015-Mar-17 09:33N 40°55' E 009°32'0 0.0
2015-Mar-17 08:34N 40°55' E 009°32'0 0.0
2015-Mar-17 07:32N 40°55' E 009°32'0 0.0
2015-Mar-17 06:33N 40°55' E 009°32'0 0.2
2015-Mar-17 05:33N 40°55' E 009°32'0 0.0
2015-Mar-15 21:33N 40°55' E 009°32'0 0.0
2015-Mar-15 20:32N 40°55' E 009°32'0 0.0
2015-Mar-15 19:33N 40°55' E 009°31'0 0.0
2015-Mar-15 18:33N 40°55' E 009°32'0 0.0
2015-Mar-15 17:33N 40°55' E 009°32'0 0.0
2015-Mar-15 16:33N 40°55' E 009°32'0 0.0
2015-Mar-15 15:33N 40°55' E 009°31'0 0.0
2015-Mar-15 14:33N 40°55' E 009°32'0 0.0
2015-Mar-15 13:33N 40°55' E 009°32'0 0.0
2015-Mar-15 12:34N 40°55' E 009°31'0 0.0
2015-Mar-15 11:33N 40°55' E 009°32'0 0.0
2015-Mar-15 10:33N 40°55' E 009°31'0 0.0
2015-Mar-15 09:33N 40°55' E 009°32'0 0.0
2015-Mar-15 08:33N 40°55' E 009°32'0 0.0
2015-Mar-15 07:33N 40°55' E 009°31'0 0.0
2015-Mar-15 06:33N 40°55' E 009°31'0 0.0
2015-Mar-15 05:33N 40°55' E 009°31'0 0.0
2015-Mar-13 21:33N 40°55' E 009°32'0 0.0
2015-Mar-13 20:33N 40°55' E 009°32'0 0.0
2015-Mar-13 19:32N 40°55' E 009°31'0 0.0
2015-Mar-13 18:32N 40°55' E 009°32'0 0.0
2015-Mar-13 17:33N 40°55' E 009°32'0 0.0
2015-Mar-13 16:33N 40°55' E 009°32'0 0.0
2015-Mar-13 15:33N 40°55' E 009°31'0 0.0
2015-Mar-13 14:33N 40°55' E 009°31'0 0.0
2015-Mar-13 13:33N 40°55' E 009°31'0 0.0
2015-Mar-13 12:33N 40°55' E 009°32'0 0.0
2015-Mar-13 11:33N 40°55' E 009°31'0 0.0
2015-Mar-13 10:31N 40°55' E 009°32'0 0.0
2015-Mar-13 09:33N 40°55' E 009°32'0 0.0
2015-Mar-13 08:33N 40°55' E 009°31'0 0.0
2015-Mar-13 07:33N 40°55' E 009°31'0 0.0
2015-Mar-13 06:33N 40°55' E 009°31'0 0.0
2015-Mar-13 05:33N 40°55' E 009°31'0 0.0
2015-Mar-11 21:33N 40°55' E 009°32'0 0.1
2015-Mar-11 20:21N 40°55' E 009°32'0 0.0
2015-Mar-11 19:33N 40°55' E 009°32'0 0.0
2015-Mar-11 18:24N 40°55' E 009°32'  

Dump ship's entire track history